sensor_id;sensor_type;location;lat;lon;timestamp;pressure;altitude;pressure_sealevel;temperature;humidity
50672;BME280;46021;55.882;37.654;2022-10-16T00:01:59;100719.31;;;4.01;63.55
50672;BME280;46021;55.882;37.654;2022-10-16T00:04:27;100723.56;;;3.99;64.13
50672;BME280;46021;55.882;37.654;2022-10-16T00:06:54;100728.75;;;4.01;63.62
50672;BME280;46021;55.882;37.654;2022-10-16T00:09:21;100715.81;;;3.98;62.92
50672;BME280;46021;55.882;37.654;2022-10-16T00:11:50;100723.63;;;4.04;63.13
50672;BME280;46021;55.882;37.654;2022-10-16T00:14:17;100718.38;;;3.96;63.04
50672;BME280;46021;55.882;37.654;2022-10-16T00:16:44;100728.75;;;4.01;63.38
50672;BME280;46021;55.882;37.654;2022-10-16T00:19:11;100726.97;;;3.97;62.83
50672;BME280;46021;55.882;37.654;2022-10-16T00:21:38;100733.88;;;3.98;62.82
50672;BME280;46021;55.882;37.654;2022-10-16T00:24:24;100738.16;;;3.99;63.81
50672;BME280;46021;55.882;37.654;2022-10-16T00:26:52;100731.19;;;3.90;63.81
50672;BME280;46021;55.882;37.654;2022-10-16T00:29:20;100738.91;;;3.88;63.45
50672;BME280;46021;55.882;37.654;2022-10-16T00:31:47;100737.16;;;3.84;63.97
50672;BME280;46021;55.882;37.654;2022-10-16T00:34:14;100726.75;;;3.78;64.50
50672;BME280;46021;55.882;37.654;2022-10-16T00:36:43;100737.09;;;3.81;64.29
50672;BME280;46021;55.882;37.654;2022-10-16T00:39:10;100737.97;;;3.80;63.74
50672;BME280;46021;55.882;37.654;2022-10-16T00:41:37;100743.09;;;3.79;64.28
50672;BME280;46021;55.882;37.654;2022-10-16T00:47:08;100739.59;;;3.75;63.24
50672;BME280;46021;55.882;37.654;2022-10-16T00:49:36;100745.56;;;3.71;63.73
50672;BME280;46021;55.882;37.654;2022-10-16T00:52:03;100737.84;;;3.71;63.53
50672;BME280;46021;55.882;37.654;2022-10-16T00:54:32;100742.97;;;3.69;63.53
50672;BME280;46021;55.882;37.654;2022-10-16T00:57:02;100748.09;;;3.68;64.13
50672;BME280;46021;55.882;37.654;2022-10-16T00:59:31;100742.06;;;3.66;64.04
50672;BME280;46021;55.882;37.654;2022-10-16T01:01:59;100747.19;;;3.64;64.25
50672;BME280;46021;55.882;37.654;2022-10-16T01:04:32;100744.53;;;3.58;64.88
50672;BME280;46021;55.882;37.654;2022-10-16T01:07:08;100746.22;;;3.56;65.21
50672;BME280;46021;55.882;37.654;2022-10-16T01:09:47;100750.53;;;3.57;64.25
50672;BME280;46021;55.882;37.654;2022-10-16T01:12:19;100753.94;;;3.55;64.61
50672;BME280;46021;55.882;37.654;2022-10-16T01:14:53;100755.59;;;3.51;64.68
50672;BME280;46021;55.882;37.654;2022-10-16T01:17:28;100763.31;;;3.48;64.69
50672;BME280;46021;55.882;37.654;2022-10-16T01:20:16;100759.81;;;3.44;64.65
50672;BME280;46021;55.882;37.654;2022-10-16T01:23:01;100758.06;;;3.43;64.72
50672;BME280;46021;55.882;37.654;2022-10-16T01:25:42;100754.56;;;3.38;64.67
50672;BME280;46021;55.882;37.654;2022-10-16T01:28:17;100760.59;;;3.40;64.59
50672;BME280;46021;55.882;37.654;2022-10-16T01:30:46;100762.25;;;3.35;65.42
50672;BME280;46021;55.882;37.654;2022-10-16T01:33:17;100759.66;;;3.34;65.32
50672;BME280;46021;55.882;37.654;2022-10-16T01:35:49;100763.06;;;3.32;65.28
50672;BME280;46021;55.882;37.654;2022-10-16T01:38:22;100769.91;;;3.30;64.97
50672;BME280;46021;55.882;37.654;2022-10-16T01:40:52;100765.63;;;3.31;65.46
50672;BME280;46021;55.882;37.654;2022-10-16T01:43:27;100774.19;;;3.30;65.27
50672;BME280;46021;55.882;37.654;2022-10-16T01:45:59;100768.19;;;3.29;65.19
50672;BME280;46021;55.882;37.654;2022-10-16T01:48:27;100775.94;;;3.31;65.53
50672;BME280;46021;55.882;37.654;2022-10-16T01:50:59;100772.50;;;3.32;65.78
50672;BME280;46021;55.882;37.654;2022-10-16T01:53:28;100770.78;;;3.32;65.23
50672;BME280;46021;55.882;37.654;2022-10-16T01:55:57;100776.84;;;3.33;65.65
50672;BME280;46021;55.882;37.654;2022-10-16T01:58:27;100775.97;;;3.34;65.20
50672;BME280;46021;55.882;37.654;2022-10-16T02:01:01;100763.88;;;3.30;65.59
50672;BME280;46021;55.882;37.654;2022-10-16T02:03:29;100769.00;;;3.27;64.86
50672;BME280;46021;55.882;37.654;2022-10-16T02:05:58;100774.94;;;3.23;65.53
50672;BME280;46021;55.882;37.654;2022-10-16T02:08:27;100774.06;;;3.21;65.71
50672;BME280;46021;55.882;37.654;2022-10-16T02:10:57;100777.38;;;3.13;66.26
50672;BME280;46021;55.882;37.654;2022-10-16T02:13:30;100768.66;;;3.05;66.14
50672;BME280;46021;55.882;37.654;2022-10-16T02:15:58;100782.44;;;3.07;65.72
50672;BME280;46021;55.882;37.654;2022-10-16T02:18:25;100778.09;;;3.05;66.14
50672;BME280;46021;55.882;37.654;2022-10-16T02:20:58;100781.47;;;3.02;65.49
50672;BME280;46021;55.882;37.654;2022-10-16T02:23:33;100771.94;;;2.95;66.11
50672;BME280;46021;55.882;37.654;2022-10-16T02:26:05;100778.88;;;2.99;66.94
50672;BME280;46021;55.882;37.654;2022-10-16T02:28:38;100775.34;;;2.94;66.42
50672;BME280;46021;55.882;37.654;2022-10-16T02:31:10;100785.66;;;2.94;66.44
50672;BME280;46021;55.882;37.654;2022-10-16T02:33:39;100783.94;;;2.93;66.24
50672;BME280;46021;55.882;37.654;2022-10-16T02:36:07;100777.84;;;2.89;66.72
50672;BME280;46021;55.882;37.654;2022-10-16T02:38:35;100777.91;;;2.94;66.74
50672;BME280;46021;55.882;37.654;2022-10-16T02:41:04;100783.09;;;2.96;66.05
50672;BME280;46021;55.882;37.654;2022-10-16T02:43:32;100790.78;;;2.94;66.42
50672;BME280;46021;55.882;37.654;2022-10-16T02:46:01;100785.66;;;2.94;66.38
50672;BME280;46021;55.882;37.654;2022-10-16T02:48:28;100790.88;;;2.99;66.54
50672;BME280;46021;55.882;37.654;2022-10-16T02:50:55;100791.72;;;2.98;66.76
50672;BME280;46021;55.882;37.654;2022-10-16T02:53:24;100796.03;;;2.99;66.34
50672;BME280;46021;55.882;37.654;2022-10-16T02:55:51;100788.22;;;2.94;67.90
50672;BME280;46021;55.882;37.654;2022-10-16T02:58:18;100791.66;;;2.93;67.31
50672;BME280;46021;55.882;37.654;2022-10-16T03:00:45;100795.94;;;2.94;66.98
50672;BME280;46021;55.882;37.654;2022-10-16T03:03:14;100792.53;;;2.95;66.23
50672;BME280;46021;55.882;37.654;2022-10-16T03:05:42;100796.88;;;2.98;66.49
50672;BME280;46021;55.882;37.654;2022-10-16T03:08:11;100797.63;;;2.92;66.63
50672;BME280;46021;55.882;37.654;2022-10-16T03:10:38;100801.03;;;2.91;66.52
50672;BME280;46021;55.882;37.654;2022-10-16T03:13:05;100795.88;;;2.89;66.51
50672;BME280;46021;55.882;37.654;2022-10-16T03:15:32;100807.94;;;2.92;66.83
50672;BME280;46021;55.882;37.654;2022-10-16T03:17:59;100807.09;;;2.93;66.96
50672;BME280;46021;55.882;37.654;2022-10-16T03:20:28;100811.41;;;2.94;67.14
50672;BME280;46021;55.882;37.654;2022-10-16T03:22:55;100804.53;;;2.95;66.98
50672;BME280;46021;55.882;37.654;2022-10-16T03:25:23;100802.84;;;2.97;67.11
50672;BME280;46021;55.882;37.654;2022-10-16T03:27:50;100804.63;;;2.99;66.63
50672;BME280;46021;55.882;37.654;2022-10-16T03:30:17;100806.25;;;2.94;66.28
50672;BME280;46021;55.882;37.654;2022-10-16T03:32:44;100806.25;;;2.94;66.79
50672;BME280;46021;55.882;37.654;2022-10-16T03:35:12;100811.41;;;2.94;66.44
50672;BME280;46021;55.882;37.654;2022-10-16T03:37:40;100819.09;;;2.92;66.58
50672;BME280;46021;55.882;37.654;2022-10-16T03:40:08;100821.63;;;2.91;66.85
50672;BME280;46021;55.882;37.654;2022-10-16T03:42:35;100814.81;;;2.91;66.56
50672;BME280;46021;55.882;37.654;2022-10-16T03:45:03;100824.22;;;2.91;66.63
50672;BME280;46021;55.882;37.654;2022-10-16T03:47:30;100825.97;;;2.92;66.28
50672;BME280;46021;55.882;37.654;2022-10-16T03:49:59;100823.38;;;2.92;66.62
50672;BME280;46021;55.882;37.654;2022-10-16T03:52:26;100817.38;;;2.91;66.73
50672;BME280;46021;55.882;37.654;2022-10-16T03:54:54;100813.91;;;2.91;66.60
50672;BME280;46021;55.882;37.654;2022-10-16T03:57:22;100818.25;;;2.93;67.18
50672;BME280;46021;55.882;37.654;2022-10-16T03:59:49;100816.56;;;2.94;66.54
50672;BME280;46021;55.882;37.654;2022-10-16T04:02:16;100834.53;;;2.92;66.63
50672;BME280;46021;55.882;37.654;2022-10-16T04:04:43;100823.34;;;2.90;67.27
50672;BME280;46021;55.882;37.654;2022-10-16T04:07:10;100828.47;;;2.89;67.38
50672;BME280;46021;55.882;37.654;2022-10-16T04:09:37;100819.91;;;2.90;67.48
50672;BME280;46021;55.882;37.654;2022-10-16T04:12:06;100819.91;;;2.90;67.15
50672;BME280;46021;55.882;37.654;2022-10-16T04:14:33;100816.47;;;2.91;67.25
50672;BME280;46021;55.882;37.654;2022-10-16T04:17:00;100823.38;;;2.92;67.54
50672;BME280;46021;55.882;37.654;2022-10-16T04:19:27;100824.28;;;2.94;67.40
50672;BME280;46021;55.882;37.654;2022-10-16T04:21:54;100818.31;;;2.95;67.25
50672;BME280;46021;55.882;37.654;2022-10-16T04:24:21;100816.63;;;2.97;67.32
50672;BME280;46021;55.882;37.654;2022-10-16T04:26:48;100812.38;;;3.01;67.83
50672;BME280;46021;55.882;37.654;2022-10-16T04:29:17;100820.13;;;3.02;68.01
50672;BME280;46021;55.882;37.654;2022-10-16T04:31:44;100826.22;;;3.07;67.23
50672;BME280;46021;55.882;37.654;2022-10-16T04:34:11;100828.91;;;3.13;67.53
50672;BME280;46021;55.882;37.654;2022-10-16T04:36:38;100828.34;;;3.31;67.38
50672;BME280;46021;55.882;37.654;2022-10-16T04:39:05;100821.03;;;3.58;68.13
50672;BME280;46021;55.882;37.654;2022-10-16T04:41:32;100822.47;;;4.00;68.34
50672;BME280;46021;55.882;37.654;2022-10-16T04:44:00;100820.44;;;4.46;67.54
50672;BME280;46021;55.882;37.654;2022-10-16T04:46:28;100824.59;;;5.16;67.39
50672;BME280;46021;55.882;37.654;2022-10-16T04:48:55;100827.81;;;6.00;66.72
50672;BME280;46021;55.882;37.654;2022-10-16T04:51:22;100833.19;;;6.48;63.81
50672;BME280;46021;55.882;37.654;2022-10-16T04:53:51;100828.81;;;6.32;61.72
50672;BME280;46021;55.882;37.654;2022-10-16T04:56:18;100818.19;;;5.85;61.94
50672;BME280;46021;55.882;37.654;2022-10-16T04:58:46;100836.91;;;5.47;62.03
50672;BME280;46021;55.882;37.654;2022-10-16T05:01:13;100834.84;;;5.06;62.40
50672;BME280;46021;55.882;37.654;2022-10-16T05:03:42;100825.91;;;4.74;62.98
50672;BME280;46021;55.882;37.654;2022-10-16T05:06:09;100833.44;;;4.52;63.01
50672;BME280;46021;55.882;37.654;2022-10-16T05:08:36;100831.53;;;4.36;63.79
50672;BME280;46021;55.882;37.654;2022-10-16T05:11:03;100837.41;;;4.24;63.09
50672;BME280;46021;55.882;37.654;2022-10-16T05:13:31;100831.28;;;4.14;64.59
50672;BME280;46021;55.882;37.654;2022-10-16T05:15:58;100838.88;;;4.03;64.52
50672;BME280;46021;55.882;37.654;2022-10-16T05:18:25;100844.84;;;4.01;63.76
50672;BME280;46021;55.882;37.654;2022-10-16T05:20:53;100845.63;;;3.94;64.73
50672;BME280;46021;55.882;37.654;2022-10-16T05:23:21;100844.66;;;3.88;64.95
50672;BME280;46021;55.882;37.654;2022-10-16T05:25:58;100844.63;;;3.85;64.20
50672;BME280;46021;55.882;37.654;2022-10-16T05:28:26;100845.41;;;3.81;64.72
50672;BME280;46021;55.882;37.654;2022-10-16T05:30:53;100851.34;;;3.76;64.25
50672;BME280;46021;55.882;37.654;2022-10-16T05:33:22;100848.81;;;3.77;64.79
50672;BME280;46021;55.882;37.654;2022-10-16T05:35:49;100844.47;;;3.75;65.12
50672;BME280;46021;55.882;37.654;2022-10-16T05:38:18;100854.00;;;3.79;65.30
50672;BME280;46021;55.882;37.654;2022-10-16T05:40:50;100843.59;;;3.74;65.84
50672;BME280;46021;55.882;37.654;2022-10-16T05:43:18;100844.47;;;3.76;65.15
50672;BME280;46021;55.882;37.654;2022-10-16T05:45:53;100842.72;;;3.70;65.38
50672;BME280;46021;55.882;37.654;2022-10-16T05:48:20;100851.34;;;3.73;65.89
50672;BME280;46021;55.882;37.654;2022-10-16T05:50:48;100851.44;;;3.80;65.48
50672;BME280;46021;55.882;37.654;2022-10-16T05:53:15;100859.22;;;3.85;65.25
50672;BME280;46021;55.882;37.654;2022-10-16T05:55:43;100845.41;;;3.81;64.78
50672;BME280;46021;55.882;37.654;2022-10-16T05:58:18;100861.09;;;3.94;65.41
50672;BME280;46021;55.882;37.654;2022-10-16T06:00:52;100859.31;;;3.89;66.11
50672;BME280;46021;55.882;37.654;2022-10-16T06:03:20;100855.03;;;3.93;64.84
50672;BME280;46021;55.882;37.654;2022-10-16T06:05:47;100849.00;;;3.89;64.88
50672;BME280;46021;55.882;37.654;2022-10-16T06:08:14;100869.78;;;4.00;65.02
50672;BME280;46021;55.882;37.654;2022-10-16T06:10:42;100863.81;;;4.03;64.55
50672;BME280;46021;55.882;37.654;2022-10-16T06:13:10;100850.00;;;4.01;64.87
50672;BME280;46021;55.882;37.654;2022-10-16T06:15:37;100858.78;;;4.12;64.98
50672;BME280;46021;55.882;37.654;2022-10-16T06:18:07;100864.91;;;4.23;64.67
50672;BME280;46021;55.882;37.654;2022-10-16T06:20:35;100863.19;;;4.22;64.67
50672;BME280;46021;55.882;37.654;2022-10-16T06:23:02;100855.50;;;4.25;65.54
50672;BME280;46021;55.882;37.654;2022-10-16T06:25:29;100862.50;;;4.36;64.31
50672;BME280;46021;55.882;37.654;2022-10-16T06:27:58;100860.00;;;4.42;64.14
50672;BME280;46021;55.882;37.654;2022-10-16T06:30:26;100860.13;;;4.53;63.82
50672;BME280;46021;55.882;37.654;2022-10-16T06:32:53;100852.38;;;4.53;64.88
50672;BME280;46021;55.882;37.654;2022-10-16T06:35:21;100865.41;;;4.65;63.81
50672;BME280;46021;55.882;37.654;2022-10-16T06:37:49;100870.69;;;4.73;64.12
50672;BME280;46021;55.882;37.654;2022-10-16T06:40:16;100866.44;;;4.78;64.39
50672;BME280;46021;55.882;37.654;2022-10-16T06:42:43;100866.47;;;4.81;63.80
50672;BME280;46021;55.882;37.654;2022-10-16T06:45:12;100871.72;;;4.88;63.85
50672;BME280;46021;55.882;37.654;2022-10-16T06:47:40;100864.03;;;4.96;64.56
50672;BME280;46021;55.882;37.654;2022-10-16T06:50:08;100864.19;;;5.08;64.10
50672;BME280;46021;55.882;37.654;2022-10-16T06:52:35;100867.69;;;5.17;63.76
50672;BME280;46021;55.882;37.654;2022-10-16T06:55:03;100869.50;;;5.25;63.34
50672;BME280;46021;55.882;37.654;2022-10-16T06:57:30;100873.00;;;5.32;63.05
50672;BME280;46021;55.882;37.654;2022-10-16T06:59:58;100862.69;;;5.38;63.09
50672;BME280;46021;55.882;37.654;2022-10-16T07:02:26;100874.00;;;5.50;63.17
50672;BME280;46021;55.882;37.654;2022-10-16T07:04:53;100871.47;;;5.56;62.02
50672;BME280;46021;55.882;37.654;2022-10-16T07:07:22;100880.13;;;5.61;62.58
50672;BME280;46021;55.882;37.654;2022-10-16T07:09:50;100868.94;;;5.65;61.95
50672;BME280;46021;55.882;37.654;2022-10-16T07:12:17;100875.94;;;5.78;62.31
50672;BME280;46021;55.882;37.654;2022-10-16T07:14:45;100880.31;;;5.87;62.12
50672;BME280;46021;55.882;37.654;2022-10-16T07:17:12;100866.56;;;5.93;61.25
50672;BME280;46021;55.882;37.654;2022-10-16T07:19:40;100868.38;;;6.01;61.83
50672;BME280;46021;55.882;37.654;2022-10-16T07:22:08;100883.13;;;6.19;61.03
50672;BME280;46021;55.882;37.654;2022-10-16T07:24:35;100881.44;;;6.26;60.63
50672;BME280;46021;55.882;37.654;2022-10-16T07:27:05;100875.44;;;6.33;61.08
50672;BME280;46021;55.882;37.654;2022-10-16T07:29:32;100875.47;;;6.41;60.32
50672;BME280;46021;55.882;37.654;2022-10-16T07:31:59;100884.97;;;6.48;60.39
50672;BME280;46021;55.882;37.654;2022-10-16T07:34:28;100875.50;;;6.53;59.71
50672;BME280;46021;55.882;37.654;2022-10-16T07:36:56;100883.31;;;6.62;59.74
50672;BME280;46021;55.882;37.654;2022-10-16T07:39:23;100879.03;;;6.69;59.37
50672;BME280;46021;55.882;37.654;2022-10-16T07:41:51;100884.22;;;6.71;58.99
50672;BME280;46021;55.882;37.654;2022-10-16T07:44:18;100879.94;;;6.79;58.46
50672;BME280;46021;55.882;37.654;2022-10-16T07:46:45;100876.50;;;6.85;58.63
50672;BME280;46021;55.882;37.654;2022-10-16T07:49:12;100878.22;;;6.92;58.69
50672;BME280;46021;55.882;37.654;2022-10-16T07:51:40;100874.81;;;7.02;57.89
50672;BME280;46021;55.882;37.654;2022-10-16T07:54:09;100875.69;;;7.12;57.70
50672;BME280;46021;55.882;37.654;2022-10-16T07:56:36;100873.09;;;7.26;57.86
50672;BME280;46021;55.882;37.654;2022-10-16T07:59:04;100885.22;;;7.36;57.58
50672;BME280;46021;55.882;37.654;2022-10-16T08:01:31;100876.56;;;7.37;56.96
50672;BME280;46021;55.882;37.654;2022-10-16T08:03:58;100879.16;;;7.52;57.03
50672;BME280;46021;55.882;37.654;2022-10-16T08:06:25;100882.63;;;7.65;56.75
50672;BME280;46021;55.882;37.654;2022-10-16T08:08:52;100881.75;;;7.77;56.58
50672;BME280;46021;55.882;37.654;2022-10-16T08:11:21;100872.22;;;7.77;55.59
50672;BME280;46021;55.882;37.654;2022-10-16T08:13:49;100863.56;;;7.91;55.13
50672;BME280;46021;55.882;37.654;2022-10-16T08:16:16;100877.34;;;8.07;55.11
50672;BME280;46021;55.882;37.654;2022-10-16T08:18:43;100872.19;;;8.11;55.50
50672;BME280;46021;55.882;37.654;2022-10-16T08:21:13;100870.41;;;8.23;54.54
50672;BME280;46021;55.882;37.654;2022-10-16T08:23:40;100860.84;;;8.31;54.58
50672;BME280;46021;55.882;37.654;2022-10-16T08:26:08;100859.94;;;8.53;54.32
50672;BME280;46021;55.882;37.654;2022-10-16T08:28:37;100870.16;;;8.90;54.18
50672;BME280;46021;55.882;37.654;2022-10-16T08:31:06;100858.97;;;9.86;55.69
50672;BME280;46021;55.882;37.654;2022-10-16T08:33:34;100859.44;;;12.00;54.43
50672;BME280;46021;55.882;37.654;2022-10-16T08:36:02;100855.63;;;14.06;47.86
50672;BME280;46021;55.882;37.654;2022-10-16T08:38:29;100848.16;;;15.64;43.10
50672;BME280;46021;55.882;37.654;2022-10-16T08:41:08;100847.91;;;16.69;40.52
50672;BME280;46021;55.882;37.654;2022-10-16T08:43:55;100844.75;;;18.30;37.68
50672;BME280;46021;55.882;37.654;2022-10-16T08:46:36;100852.19;;;19.34;34.90
50672;BME280;46021;55.882;37.654;2022-10-16T08:49:12;100859.69;;;20.45;35.01
50672;BME280;46021;55.882;37.654;2022-10-16T08:51:40;100845.66;;;21.38;35.45
50672;BME280;46021;55.882;37.654;2022-10-16T08:54:20;100840.28;;;21.85;32.11
50672;BME280;46021;55.882;37.654;2022-10-16T08:56:49;100855.00;;;21.46;31.63
50672;BME280;46021;55.882;37.654;2022-10-16T08:59:18;100849.25;;;22.41;32.63
50672;BME280;46021;55.882;37.654;2022-10-16T09:01:47;100844.34;;;23.18;31.62
50672;BME280;46021;55.882;37.654;2022-10-16T09:04:37;100840.88;;;23.96;28.72
50672;BME280;46021;55.882;37.654;2022-10-16T09:07:15;100843.47;;;24.47;27.58
50672;BME280;46021;55.882;37.654;2022-10-16T09:09:56;100844.69;;;24.18;25.55
50672;BME280;46021;55.882;37.654;2022-10-16T09:12:33;100843.00;;;23.91;26.17
50672;BME280;46021;55.882;37.654;2022-10-16T09:15:15;100852.44;;;22.75;26.11
50672;BME280;46021;55.882;37.654;2022-10-16T09:17:51;100848.28;;;22.56;27.44
50672;BME280;46021;55.882;37.654;2022-10-16T09:20:31;100846.72;;;21.80;27.29
50672;BME280;46021;55.882;37.654;2022-10-16T09:23:15;100847.13;;;21.28;27.15
50672;BME280;46021;55.882;37.654;2022-10-16T09:28:16;100840.28;;;21.70;28.79
50672;BME280;46021;55.882;37.654;2022-10-16T09:30:47;100841.88;;;21.42;27.26
50672;BME280;46021;55.882;37.654;2022-10-16T09:33:17;100843.16;;;21.96;28.56
50672;BME280;46021;55.882;37.654;2022-10-16T09:35:47;100841.00;;;22.87;28.46
50672;BME280;46021;55.882;37.654;2022-10-16T09:38:25;100842.16;;;23.90;25.91
50672;BME280;46021;55.882;37.654;2022-10-16T09:40:54;100833.16;;;24.30;25.79
50672;BME280;46021;55.882;37.654;2022-10-16T09:43:24;100832.16;;;25.53;25.44
50672;BME280;46021;55.882;37.654;2022-10-16T09:45:56;100840.88;;;25.44;24.11
50672;BME280;46021;55.882;37.654;2022-10-16T09:48:26;100832.81;;;24.47;24.80
50672;BME280;46021;55.882;37.654;2022-10-16T09:51:00;100830.22;;;24.22;24.92
50672;BME280;46021;55.882;37.654;2022-10-16T09:53:39;100829.44;;;22.74;24.48
50672;BME280;46021;55.882;37.654;2022-10-16T09:56:06;100836.69;;;22.00;26.28
50672;BME280;46021;55.882;37.654;2022-10-16T09:58:34;100831.88;;;21.32;26.43
50672;BME280;46021;55.882;37.654;2022-10-16T10:01:04;100835.31;;;20.88;27.44
50672;BME280;46021;55.882;37.654;2022-10-16T10:03:35;100815.28;;;20.66;26.87
50672;BME280;46021;55.882;37.654;2022-10-16T10:06:13;100821.97;;;20.89;27.19
50672;BME280;46021;55.882;37.654;2022-10-16T10:08:56;100827.31;;;21.03;27.04
50672;BME280;46021;55.882;37.654;2022-10-16T10:11:44;100827.47;;;21.32;26.05
50672;BME280;46021;55.882;37.654;2022-10-16T10:14:33;100809.16;;;21.28;26.69
50672;BME280;46021;55.882;37.654;2022-10-16T10:17:10;100821.63;;;21.86;26.46
50672;BME280;46021;55.882;37.654;2022-10-16T10:19:40;100823.88;;;22.64;27.03
50672;BME280;46021;55.882;37.654;2022-10-16T10:22:17;100819.84;;;22.30;25.03
50672;BME280;46021;55.882;37.654;2022-10-16T10:24:54;100808.03;;;23.17;24.60
50672;BME280;46021;55.882;37.654;2022-10-16T10:27:26;100814.53;;;23.13;25.52
50672;BME280;46021;55.882;37.654;2022-10-16T10:30:01;100806.56;;;23.13;24.93
50672;BME280;46021;55.882;37.654;2022-10-16T10:32:38;100803.28;;;23.22;24.32
50672;BME280;46021;55.882;37.654;2022-10-16T10:35:15;100817.69;;;22.78;24.71
50672;BME280;46021;55.882;37.654;2022-10-16T10:37:54;100809.44;;;21.53;25.72
50672;BME280;46021;55.882;37.654;2022-10-16T10:40:32;100815.81;;;21.79;26.33
50672;BME280;46021;55.882;37.654;2022-10-16T10:43:10;100822.25;;;21.61;26.12
50672;BME280;46021;55.882;37.654;2022-10-16T10:45:43;100798.47;;;21.88;26.01
50672;BME280;46021;55.882;37.654;2022-10-16T10:48:24;100805.22;;;21.19;26.05
50672;BME280;46021;55.882;37.654;2022-10-16T10:50:58;100802.25;;;21.55;26.41
50672;BME280;46021;55.882;37.654;2022-10-16T10:53:36;100793.50;;;20.77;25.91
50672;BME280;46021;55.882;37.654;2022-10-16T10:56:16;100793.91;;;21.31;26.48
50672;BME280;46021;55.882;37.654;2022-10-16T10:59:15;100798.94;;;21.06;26.41
50672;BME280;46021;55.882;37.654;2022-10-16T11:01:54;100802.34;;;21.08;26.94
50672;BME280;46021;55.882;37.654;2022-10-16T11:04:45;100800.78;;;20.08;26.52
50672;BME280;46021;55.882;37.654;2022-10-16T11:07:20;100798.75;;;19.80;28.23
50672;BME280;46021;55.882;37.654;2022-10-16T11:09:51;100792.06;;;19.55;28.20
50672;BME280;46021;55.882;37.654;2022-10-16T11:12:22;100789.91;;;19.97;27.90
50672;BME280;46021;55.882;37.654;2022-10-16T11:14:57;100796.19;;;19.78;28.09
50672;BME280;46021;55.882;37.654;2022-10-16T11:17:32;100792.38;;;20.00;28.21
50672;BME280;46021;55.882;37.654;2022-10-16T11:20:10;100791.59;;;19.29;28.51
50672;BME280;46021;55.882;37.654;2022-10-16T11:22:42;100794.50;;;18.50;29.48
50672;BME280;46021;55.882;37.654;2022-10-16T11:25:14;100798.75;;;18.36;29.88
50672;BME280;46021;55.882;37.654;2022-10-16T11:27:49;100788.31;;;18.51;30.14
50672;BME280;46021;55.882;37.654;2022-10-16T11:30:20;100792.22;;;18.81;29.61
50672;BME280;46021;55.882;37.654;2022-10-16T11:33:03;100788.16;;;17.98;29.84
50672;BME280;46021;55.882;37.654;2022-10-16T11:35:39;100796.06;;;17.77;30.53
50672;BME280;46021;55.882;37.654;2022-10-16T11:38:14;100784.97;;;17.69;30.65
50672;BME280;46021;55.882;37.654;2022-10-16T11:40:47;100788.75;;;17.63;31.10
50672;BME280;46021;55.882;37.654;2022-10-16T11:43:20;100782.72;;;17.80;31.11
50672;BME280;46021;55.882;37.654;2022-10-16T11:45:51;100787.78;;;17.86;30.91
50672;BME280;46021;55.882;37.654;2022-10-16T11:48:25;100781.88;;;17.39;31.39
50672;BME280;46021;55.882;37.654;2022-10-16T11:50:56;100783.06;;;17.52;31.44
50672;BME280;46021;55.882;37.654;2022-10-16T11:53:35;100783.78;;;17.76;31.66
50672;BME280;46021;55.882;37.654;2022-10-16T11:56:06;100787.25;;;18.18;30.71
50672;BME280;46021;55.882;37.654;2022-10-16T11:58:37;100786.19;;;17.62;31.70
50672;BME280;46021;55.882;37.654;2022-10-16T12:01:17;100785.03;;;18.08;30.91
50672;BME280;46021;55.882;37.654;2022-10-16T12:03:54;100776.75;;;18.16;30.73
50672;BME280;46021;55.882;37.654;2022-10-16T12:06:32;100786.59;;;18.31;30.72
50672;BME280;46021;55.882;37.654;2022-10-16T12:09:01;100785.09;;;18.45;30.86
50672;BME280;46021;55.882;37.654;2022-10-16T12:11:36;100791.97;;;18.11;30.89
50672;BME280;46021;55.882;37.654;2022-10-16T12:14:19;100788.22;;;17.34;31.16
50672;BME280;46021;55.882;37.654;2022-10-16T12:16:52;100788.16;;;16.93;32.30
50672;BME280;46021;55.882;37.654;2022-10-16T12:19:21;100768.72;;;15.56;33.59
50672;BME280;46021;55.882;37.654;2022-10-16T12:21:50;100777.78;;;14.95;34.30
50672;BME280;46021;55.882;37.654;2022-10-16T12:24:39;100775.81;;;14.16;36.37
50672;BME280;46021;55.882;37.654;2022-10-16T12:27:24;100779.50;;;13.77;36.20
50672;BME280;46021;55.882;37.654;2022-10-16T12:29:56;100775.63;;;13.59;36.40
50672;BME280;46021;55.882;37.654;2022-10-16T12:32:31;100760.44;;;13.39;37.77
50672;BME280;46021;55.882;37.654;2022-10-16T12:34:59;100772.41;;;13.50;36.95
50672;BME280;46021;55.882;37.654;2022-10-16T12:37:32;100763.03;;;13.39;37.75
50672;BME280;46021;55.882;37.654;2022-10-16T12:40:12;100769.91;;;13.43;38.20
50672;BME280;46021;55.882;37.654;2022-10-16T12:42:40;100767.63;;;13.64;37.59
50672;BME280;46021;55.882;37.654;2022-10-16T12:45:25;100766.44;;;13.43;37.62
50672;BME280;46021;55.882;37.654;2022-10-16T12:47:54;100753.94;;;13.18;38.04
50672;BME280;46021;55.882;37.654;2022-10-16T12:50:28;100753.34;;;12.71;39.26
50672;BME280;46021;55.882;37.654;2022-10-16T12:53:00;100761.91;;;12.40;39.27
50672;BME280;46021;55.882;37.654;2022-10-16T12:55:42;100768.72;;;12.05;39.94
50672;BME280;46021;55.882;37.654;2022-10-16T12:58:28;100764.81;;;11.81;40.61
50672;BME280;46021;55.882;37.654;2022-10-16T13:01:04;100771.22;;;11.66;40.57
50672;BME280;46021;55.882;37.654;2022-10-16T13:03:50;100768.69;;;11.62;41.67
50672;BME280;46021;55.882;37.654;2022-10-16T13:06:33;100758.34;;;11.57;41.74
50672;BME280;46021;55.882;37.654;2022-10-16T13:09:19;100763.41;;;11.65;41.29
50672;BME280;46021;55.882;37.654;2022-10-16T13:11:59;100761.66;;;11.65;41.74